Flight Track Log - Related Links

Times and Time Zones

All times are in EDT time to prevent confusion due to time zone crossing. See the SWA1377 flight status page for this flight to view local times or setup timezone preferences in your user account.

Time Position Orientation Groundspeed Altitude Reporting Facility
EDT Latitude Longitude Course Direction KTS MPH feet Rate Location/Type
Mon 12:24:28 PM 42.8833 -78.7667 206° Southwest 197 227 4,900  Level Buffalo TRACON
Mon 12:25:15 PM 42.8317 -78.7714 184° South 234 269 6,700 2,579 Climbing Cleveland Center
Mon 12:26:15 PM 42.7689 -78.7561 170° South 265 305 9,500 3,200 Climbing Cleveland Center
Mon 12:27:15 PM 42.6853 -78.7358 170° South 271 312 13,100 3,650 Climbing Cleveland Center
Mon 12:28:15 PM 42.5953 -78.7189 172° South 304 350 16,800 3,350 Climbing Cleveland Center
Mon 12:29:15 PM 42.4947 -78.6964 171° South 340 391 19,800 2,100 Climbing Cleveland Center
Mon 12:30:15 PM 42.3925 -78.6769 172° South 367 422 21,000 800 Climbing Cleveland Center
Mon 12:31:15 PM 42.2900 -78.6578 172° South 374 430 21,400 1,950 Climbing Cleveland Center
Mon 12:32:15 PM 42.1728 -78.6331 171° South 374 430 24,900 1,800 Climbing Cleveland Center
Mon 12:33:15 PM 42.0819 -78.5575 148° Southeast 379 436 25,000 50 Climbing Cleveland Center
Mon 12:34:15 PM 42.0028 -78.4539 136° Southeast 384 442 25,000  Level Cleveland Center
Mon 12:35:15 PM 41.9172 -78.3369 134° Southeast 410 472 25,000  Level Cleveland Center
Mon 12:36:15 PM 41.8314 -78.2228 135° Southeast 424 488 25,000  Level Cleveland Center
Mon 12:37:58 PM 41.6831 -78.0289 136° Southeast 445 512 25,000  Level New York Center
Mon 12:38:59 PM 41.5958 -77.9167 136° Southeast 445 512 25,000  Level New York Center
Mon 12:40:00 PM 41.5089 -77.8050 136° Southeast 445 512 25,000  Level New York Center
Mon 12:41:00 PM 41.4414 -77.7119 134° Southeast 445 512 25,000 -102 Level New York Center
Mon 12:41:58 PM 41.3422 -77.5886 137° Southeast 445 512 24,800 -610 Descending New York Center
Mon 12:42:58 PM 41.2569 -77.4778 136° Southeast 445 512 23,800 -1,091 Descending New York Center
Mon 12:43:59 PM 41.1617 -77.3581 137° Southeast 445 512 22,600 -1,033 Descending New York Center
Mon 12:45:00 PM 41.0797 -77.2536 136° Southeast 433 498 21,700 -942 Descending New York Center
Mon 12:46:00 PM 40.9997 -77.1525 136° Southeast 422 486 20,700 -1,017 Descending New York Center
Mon 12:46:58 PM 40.9178 -77.0486 136° Southeast 412 474 19,700 -950 Descending New York Center
Mon 12:48:00 PM 40.8494 -76.9628 136° Southeast 393 452 18,800 -829 Descending New York Center
Mon 12:49:01 PM 40.7694 -76.8597 136° Southeast 383 441 18,000 -915 Descending New York Center
Mon 12:49:58 PM 40.6967 -76.7739 138° Southeast 363 418 17,000 -966 Descending New York Center
Mon 12:50:59 PM 40.6297 -76.6942 138° Southeast 358 412 16,100 -934 Descending New York Center
Mon 12:52:00 PM 40.5650 -76.6119 136° Southeast 342 394 15,100 -545 Descending New York Center
Mon 12:53:00 PM 40.5072 -76.5142 128° Southeast 337 388 15,000 -50 Descending New York Center
Mon 12:54:01 PM 40.4317 -76.4397 143° Southeast 324 373 15,000 -203 Level New York Center
Mon 12:54:58 PM 40.3433 -76.4544 187° South 303 349 14,600 -712 Descending New York Center
Mon 12:55:59 PM 40.2636 -76.4697 188° South 324 373 13,600 -984 Descending New York Center
Mon 12:57:00 PM 40.1753 -76.4842 187° South 324 373 12,600 -545 Descending New York Center
Mon 12:58:55 PM 40.0000 -76.5167 188° South 284 327 12,000 -205 Descending Potomac TRACON
Mon 12:59:56 PM 39.9167 -76.5333 189° South 278 320 12,000 -99 Level Potomac TRACON
Mon 01:00:56 PM 39.8500 -76.5833 210° Southwest 280 322 11,800 -595 Descending Potomac TRACON
Mon 01:01:57 PM 39.7833 -76.6167 201° Southwest 282 325 10,800 -1,039 Descending Potomac TRACON
Mon 01:03:03 PM 39.7000 -76.6500 197° South 275 316 9,600 -1,228 Descending Potomac TRACON
Mon 01:04:04 PM 39.6333 -76.6833 201° Southwest 274 315 8,200 -1,388 Descending Potomac TRACON
Mon 01:05:04 PM 39.5667 -76.7167 201° Southwest 265 305 6,800 -1,300 Descending Potomac TRACON
Mon 01:06:04 PM 39.5000 -76.7500 201° Southwest 242 278 5,600 -1,438 Descending Potomac TRACON
Mon 01:07:05 PM 39.4333 -76.7500 180° South 245 282 3,900 -1,289 Descending Potomac TRACON
Mon 01:08:05 PM 39.3500 -76.7500 180° South 235 270 3,000 -900 Descending Potomac TRACON

Login

Don't have an account? Register now (free) for customized features, flight alerts, and more!